Wetterdaten: aktuell Sonntag, 20.10.2019 09:10
Datum Zeit Temp. Feuchte Luftdruck Regen Wind Richtung Richtung Sonnenschein UV Solar Windchill Windben
20.10.2019 09:10 11.3 C 98 % 1010.7 hPa 0.0 mm 0.0 km/h O 97 0 min 0.0 UV-I 28.0 W/m 11.3 C 0.0 km/h
20.10.2019 09:00 11.2 C 98 % 1010.5 hPa 0.0 mm 0.0 km/h O 97 0 min 0.0 UV-I 30.0 W/m 11.2 C 0.0 km/h
20.10.2019 08:50 11.2 C 98 % 1010.5 hPa 0.0 mm 0.0 km/h O 97 0 min 0.0 UV-I 30.0 W/m 11.2 C 0.0 km/h
20.10.2019 08:40 11.1 C 98 % 1010.6 hPa 0.0 mm 0.0 km/h O 97 0 min 0.0 UV-I 30.0 W/m 11.1 C 0.0 km/h
20.10.2019 08:30 11.1 C 98 % 1010.4 hPa 0.0 mm 0.0 km/h O 97 0 min 0.0 UV-I 32.0 W/m 11.1 C 0.0 km/h
20.10.2019 08:20 10.9 C 98 % 1010.4 hPa 0.0 mm 0.0 km/h O 97 0 min 0.0 UV-I 14.0 W/m 10.9 C 0.0 km/h
20.10.2019 08:10 10.9 C 98 % 1010.2 hPa 0.0 mm 0.0 km/h O 97 0 min 0.0 UV-I 9.0 W/m 10.9 C 0.0 km/h
20.10.2019 08:00 10.8 C 98 % 1010.2 hPa 0.0 mm 0.0 km/h O 97 0 min 0.0 UV-I 0.0 W/m 10.8 C 0.0 km/h
20.10.2019 07:50 10.8 C 98 % 1010.1 hPa 0.0 mm 0.0 km/h O 97 0 min 0.0 UV-I 0.0 W/m 10.8 C 0.0 km/h
20.10.2019 07:40 10.8 C 98 % 1010.1 hPa 0.0 mm 0.0 km/h O 97 0 min 0.0 UV-I 0.0 W/m 10.8 C 0.0 km/h
20.10.2019 07:30 10.9 C 98 % 1010.1 hPa 0.0 mm 0.0 km/h O 97 0 min 0.0 UV-I 0.0 W/m 10.9 C 0.0 km/h
20.10.2019 07:20 10.8 C 98 % 1010.2 hPa 0.0 mm 0.0 km/h O 97 0 min 0.0 UV-I 0.0 W/m 10.8 C 0.0 km/h
20.10.2019 07:10 10.9 C 98 % 1010.2 hPa 0.0 mm 0.0 km/h O 97 0 min 0.0 UV-I 0.0 W/m 10.9 C 0.0 km/h
20.10.2019 07:00 10.8 C 98 % 1010.2 hPa 0.0 mm 0.0 km/h O 97 0 min 0.0 UV-I 0.0 W/m 10.8 C 0.0 km/h
20.10.2019 06:50 10.8 C 98 % 1010.3 hPa 0.0 mm 0.0 km/h O 97 0 min 0.0 UV-I 0.0 W/m 10.8 C 0.0 km/h
20.10.2019 06:40 10.8 C 98 % 1010.4 hPa 0.0 mm 0.0 km/h O 97 0 min 0.0 UV-I 0.0 W/m 10.8 C 0.0 km/h
20.10.2019 06:30 10.7 C 98 % 1010.2 hPa 0.0 mm 0.0 km/h O 97 0 min 0.0 UV-I 0.0 W/m 10.7 C 0.0 km/h
20.10.2019 06:20 10.7 C 98 % 1010.2 hPa 0.0 mm 0.0 km/h O 97 0 min 0.0 UV-I 0.0 W/m 10.7 C 0.0 km/h
20.10.2019 06:10 10.7 C 98 % 1010.1 hPa 0.0 mm 0.0 km/h O 97 0 min 0.0 UV-I 0.0 W/m 10.7 C 0.0 km/h
20.10.2019 06:00 10.7 C 98 % 1010.3 hPa 0.0 mm 0.0 km/h O 97 0 min 0.0 UV-I 0.0 W/m 10.7 C 0.0 km/h
20.10.2019 05:50 10.7 C 98 % 1010.2 hPa 0.0 mm 0.0 km/h O 97 0 min 0.0 UV-I 0.0 W/m 10.7 C 0.0 km/h
20.10.2019 05:40 10.6 C 98 % 1010.0 hPa 0.0 mm 0.0 km/h O 97 0 min 0.0 UV-I 0.0 W/m 10.6 C 0.0 km/h
20.10.2019 05:30 10.3 C 98 % 1009.9 hPa 0.0 mm 0.0 km/h O 97 0 min 0.0 UV-I 0.0 W/m 10.3 C 0.0 km/h
20.10.2019 05:20 10.2 C 98 % 1009.8 hPa 0.0 mm 0.0 km/h O 97 0 min 0.0 UV-I 0.0 W/m 10.2 C 0.0 km/h
20.10.2019 05:10 10.2 C 98 % 1009.7 hPa 0.0 mm 0.0 km/h O 97 0 min 0.0 UV-I 0.0 W/m 10.2 C 0.0 km/h
20.10.2019 05:00 10.2 C 98 % 1009.7 hPa 0.0 mm 0.0 km/h O 97 0 min 0.0 UV-I 0.0 W/m 10.2 C 0.0 km/h
20.10.2019 04:50 10.2 C 98 % 1009.7 hPa 0.0 mm 0.0 km/h O 97 0 min 0.0 UV-I 0.0 W/m 10.2 C 0.0 km/h
20.10.2019 04:40 10.1 C 98 % 1009.7 hPa 0.0 mm 0.0 km/h O 97 0 min 0.0 UV-I 0.0 W/m 10.1 C 0.0 km/h
20.10.2019 04:30 10.1 C 98 % 1009.6 hPa 0.0 mm 0.0 km/h O 97 0 min 0.0 UV-I 0.0 W/m 10.1 C 0.0 km/h
20.10.2019 04:20 10.2 C 98 % 1009.7 hPa 0.0 mm 0.0 km/h O 97 0 min 0.0 UV-I 0.0 W/m 10.2 C 0.0 km/h
20.10.2019 04:10 10.4 C 98 % 1009.7 hPa 0.0 mm 0.0 km/h O 97 0 min 0.0 UV-I 0.0 W/m 10.4 C 0.0 km/h
20.10.2019 04:00 10.5 C 98 % 1009.8 hPa 0.0 mm 0.0 km/h O 97 0 min 0.0 UV-I 0.0 W/m 10.5 C 0.0 km/h
20.10.2019 03:50 10.6 C 98 % 1009.8 hPa 0.0 mm 0.0 km/h O 97 0 min 0.0 UV-I 0.0 W/m 10.6 C 0.0 km/h
20.10.2019 03:40 10.6 C 98 % 1010.0 hPa 0.0 mm 0.0 km/h O 97 0 min 0.0 UV-I 0.0 W/m 10.6 C 0.0 km/h
20.10.2019 03:30 10.4 C 98 % 1009.9 hPa 0.0 mm 0.0 km/h O 97 0 min 0.0 UV-I 0.0 W/m 10.4 C 0.0 km/h
20.10.2019 03:20 10.6 C 98 % 1010.0 hPa 0.0 mm 0.0 km/h O 97 0 min 0.0 UV-I 0.0 W/m 10.6 C 0.0 km/h
20.10.2019 03:10 10.5 C 98 % 1010.1 hPa 0.0 mm 0.0 km/h O 97 0 min 0.0 UV-I 0.0 W/m 10.5 C 0.0 km/h
20.10.2019 03:00 10.3 C 98 % 1010.1 hPa 0.0 mm 0.0 km/h O 97 0 min 0.0 UV-I 0.0 W/m 10.3 C 0.0 km/h
20.10.2019 02:50 10.2 C 98 % 1010.1 hPa 0.0 mm 0.1 km/h O 97 0 min 0.0 UV-I 0.0 W/m 10.2 C 1.6 km/h
20.10.2019 02:40 10.1 C 97 % 1010.2 hPa 0.0 mm 1.1 km/h O 97 0 min 0.0 UV-I 0.0 W/m 10.1 C 4.8 km/h
20.10.2019 02:30 10.1 C 98 % 1010.1 hPa 0.0 mm 1.6 km/h O 97 0 min 0.0 UV-I 0.0 W/m 10.1 C 6.4 km/h
20.10.2019 02:20 9.8 C 97 % 1010.2 hPa 0.0 mm 1.8 km/h O 97 0 min 0.0 UV-I 0.0 W/m 9.8 C 3.2 km/h
20.10.2019 02:10 9.8 C 97 % 1010.2 hPa 0.0 mm 2.1 km/h O 97 0 min 0.0 UV-I 0.0 W/m 9.8 C 4.8 km/h
20.10.2019 02:00 10.2 C 97 % 1010.4 hPa 0.0 mm 0.0 km/h O 97 0 min 0.0 UV-I 0.0 W/m 10.2 C 0.0 km/h
20.10.2019 01:50 10.2 C 98 % 1010.6 hPa 0.0 mm 0.0 km/h O 97 0 min 0.0 UV-I 0.0 W/m 10.2 C 0.0 km/h
20.10.2019 01:40 9.9 C 97 % 1010.5 hPa 0.0 mm 0.0 km/h O 97 0 min 0.0 UV-I 0.0 W/m 9.9 C 0.0 km/h
20.10.2019 01:30 10.3 C 97 % 1010.5 hPa 0.0 mm 0.0 km/h O 97 0 min 0.0 UV-I 0.0 W/m 10.3 C 0.0 km/h
20.10.2019 01:20 10.6 C 97 % 1010.5 hPa 0.0 mm 1.5 km/h O 97 0 min 0.0 UV-I 0.0 W/m 10.6 C 4.8 km/h
20.10.2019 01:10 11.1 C 97 % 1010.4 hPa 0.0 mm 2.9 km/h O 97 0 min 0.0 UV-I 0.0 W/m 11.1 C 6.4 km/h
20.10.2019 01:00 10.9 C 97 % 1010.5 hPa 0.0 mm 1.5 km/h O 81 0 min 0.0 UV-I 0.0 W/m 10.9 C 4.8 km/h
20.10.2019 00:50 10.6 C 97 % 1010.0 hPa 0.0 mm 5.5 km/h O 80 0 min 0.0 UV-I 0.0 W/m 10.6 C 8.0 km/h
20.10.2019 00:40 11.1 C 97 % 1010.4 hPa 0.0 mm 1.6 km/h O-SO 121 0 min 0.0 UV-I 0.0 W/m 11.1 C 4.8 km/h
20.10.2019 00:30 11.2 C 97 % 1010.9 hPa 0.0 mm 0.0 km/h O-SO 121 0 min 0.0 UV-I 0.0 W/m 11.2 C 0.0 km/h
20.10.2019 00:20 11.4 C 97 % 1010.8 hPa 0.0 mm 0.0 km/h O-SO 121 0 min 0.0 UV-I 0.0 W/m 11.4 C 0.0 km/h
20.10.2019 00:10 11.4 C 97 % 1011.0 hPa 0.0 mm 0.8 km/h O-SO 121 0 min 0.0 UV-I 0.0 W/m 11.4 C 4.8 km/h
20.10.2019 00:00 11.6 C 97 % 1010.7 hPa 0.0 mm 1.2 km/h O-SO 121 0 min 0.0 UV-I 0.0 W/m 11.6 C 6.4 km/h
19.10.2019 23:50 11.7 C 97 % 1011.2 hPa 0.0 mm 1.5 km/h SO 126 0 min 0.0 UV-I 0.0 W/m 11.7 C 4.8 km/h
19.10.2019 23:40 11.7 C 97 % 1010.7 hPa 0.0 mm 3.5 km/h SO 126 0 min 0.0 UV-I 0.0 W/m 11.7 C 6.4 km/h
19.10.2019 23:30 11.8 C 97 % 1010.8 hPa 0.0 mm 1.5 km/h SO 125 0 min 0.0 UV-I 0.0 W/m 11.8 C 4.8 km/h
19.10.2019 23:20 11.7 C 97 % 1010.7 hPa 0.0 mm 5.9 km/h O 82 0 min 0.0 UV-I 0.0 W/m 11.7 C 12.9 km/h
19.10.2019 23:10 11.7 C 96 % 1010.5 hPa 0.0 mm 0.8 km/h O 85 0 min 0.0 UV-I 0.0 W/m 11.7 C 8.0 km/h
19.10.2019 23:00 12.1 C 97 % 1011.2 hPa 0.0 mm 1.2 km/h S 175 0 min 0.0 UV-I 0.0 W/m 12.1 C 9.7 km/h
19.10.2019 22:50 12.1 C 97 % 1011.3 hPa 0.0 mm 3.2 km/h S 175 0 min 0.0 UV-I 0.0 W/m 12.1 C 9.7 km/h
19.10.2019 22:40 11.9 C 96 % 1010.8 hPa 0.0 mm 2.5 km/h SO 132 0 min 0.0 UV-I 0.0 W/m 11.9 C 4.8 km/h
19.10.2019 22:30 12.1 C 96 % 1010.6 hPa 0.0 mm 1.0 km/h SO 132 0 min 0.0 UV-I 0.0 W/m 12.1 C 3.2 km/h
19.10.2019 22:20 12.4 C 96 % 1011.0 hPa 0.0 mm 1.4 km/h SO 133 0 min 0.0 UV-I 0.0 W/m 12.4 C 4.8 km/h
19.10.2019 22:10 12.4 C 96 % 1011.2 hPa 0.0 mm 1.7 km/h SO 132 0 min 0.0 UV-I 0.0 W/m 12.4 C 4.8 km/h
19.10.2019 22:00 12.3 C 96 % 1010.6 hPa 0.0 mm 0.0 km/h O-NO 63 0 min 0.0 UV-I 0.0 W/m 12.3 C 0.0 km/h
19.10.2019 21:50 12.2 C 96 % 1010.7 hPa 0.0 mm 0.0 km/h O-NO 63 0 min 0.0 UV-I 0.0 W/m 12.2 C 0.0 km/h
19.10.2019 21:40 12.3 C 96 % 1010.4 hPa 0.0 mm 0.2 km/h O-NO 63 0 min 0.0 UV-I 0.0 W/m 12.3 C 1.6 km/h
19.10.2019 21:30 12.4 C 96 % 1010.6 hPa 0.0 mm 0.3 km/h O-NO 63 0 min 0.0 UV-I 0.0 W/m 12.4 C 1.6 km/h
19.10.2019 21:20 12.4 C 95 % 1010.8 hPa 0.0 mm 0.1 km/h O-NO 63 0 min 0.0 UV-I 0.0 W/m 12.4 C 1.6 km/h
19.10.2019 21:10 12.6 C 95 % 1010.7 hPa 0.0 mm 0.0 km/h O-NO 63 0 min 0.0 UV-I 0.0 W/m 12.6 C 0.0 km/h
19.10.2019 21:00 12.8 C 95 % 1010.4 hPa 0.0 mm 2.4 km/h O-NO 63 0 min 0.0 UV-I 0.0 W/m 12.8 C 4.8 km/h
19.10.2019 20:50 12.8 C 95 % 1010.3 hPa 0.0 mm 3.0 km/h O-NO 63 0 min 0.0 UV-I 0.0 W/m 12.8 C 6.4 km/h
19.10.2019 20:40 12.9 C 94 % 1010.2 hPa 0.0 mm 0.7 km/h N-NO 12 0 min 0.0 UV-I 0.0 W/m 12.9 C 4.8 km/h
19.10.2019 20:30 13.1 C 94 % 1010.5 hPa 0.0 mm 1.7 km/h N-NO 12 0 min 0.0 UV-I 0.0 W/m 13.1 C 4.8 km/h
19.10.2019 20:20 13.1 C 95 % 1010.4 hPa 0.0 mm 3.0 km/h N-NW 346 0 min 0.0 UV-I 0.0 W/m 13.1 C 9.7 km/h
19.10.2019 20:10 13.2 C 95 % 1010.3 hPa 0.0 mm 1.7 km/h NW 311 0 min 0.0 UV-I 0.0 W/m 13.2 C 4.8 km/h
19.10.2019 20:00 13.3 C 95 % 1010.7 hPa 0.0 mm 2.8 km/h NW 309 0 min 0.0 UV-I 0.0 W/m 13.3 C 6.4 km/h
19.10.2019 19:50 13.2 C 95 % 1010.6 hPa 0.0 mm 2.2 km/h NW 304 0 min 0.0 UV-I 0.0 W/m 13.2 C 4.8 km/h
19.10.2019 19:40 13.2 C 95 % 1010.1 hPa 0.0 mm 1.0 km/h NW 312 0 min 0.0 UV-I 0.0 W/m 13.2 C 4.8 km/h
19.10.2019 19:30 13.2 C 96 % 1010.3 hPa 0.0 mm 3.4 km/h NW 312 0 min 0.0 UV-I 0.0 W/m 13.2 C 6.4 km/h
19.10.2019 19:20 13.2 C 96 % 1010.3 hPa 0.0 mm 2.9 km/h W-NW 302 0 min 0.0 UV-I 0.0 W/m 13.2 C 6.4 km/h
19.10.2019 19:10 13.2 C 96 % 1010.2 hPa 0.0 mm 1.2 km/h NO 41 0 min 0.0 UV-I 0.0 W/m 13.2 C 4.8 km/h
19.10.2019 19:00 13.2 C 96 % 1009.8 hPa 0.0 mm 1.4 km/h NO 42 0 min 0.0 UV-I 0.0 W/m 13.2 C 3.2 km/h
19.10.2019 18:50 13.2 C 96 % 1009.9 hPa 0.0 mm 3.3 km/h NO 42 0 min 0.0 UV-I 0.0 W/m 13.2 C 6.4 km/h
19.10.2019 18:40 13.3 C 95 % 1009.5 hPa 0.0 mm 1.6 km/h NW 323 0 min 0.0 UV-I 0.0 W/m 13.3 C 4.8 km/h
19.10.2019 18:30 13.5 C 95 % 1010.2 hPa 0.0 mm 0.0 km/h NW 319 0 min 0.0 UV-I 0.0 W/m 13.5 C 0.0 km/h
19.10.2019 18:20 13.6 C 95 % 1010.3 hPa 0.0 mm 0.0 km/h NW 319 0 min 0.0 UV-I 5.0 W/m 13.6 C 0.0 km/h
19.10.2019 18:10 13.7 C 94 % 1010.3 hPa 0.0 mm 0.9 km/h NW 319 0 min 0.0 UV-I 9.0 W/m 13.7 C 3.2 km/h
19.10.2019 18:00 13.8 C 94 % 1010.1 hPa 0.0 mm 1.3 km/h NW 319 0 min 0.0 UV-I 19.0 W/m 13.8 C 4.8 km/h
19.10.2019 17:50 13.9 C 94 % 1010.3 hPa 0.0 mm 1.8 km/h NW 319 0 min 0.0 UV-I 21.0 W/m 13.9 C 3.2 km/h
19.10.2019 17:40 13.8 C 94 % 1010.3 hPa 0.0 mm 1.4 km/h NW 319 0 min 0.0 UV-I 39.0 W/m 13.8 C 4.8 km/h
19.10.2019 17:30 14.1 C 93 % 1010.4 hPa 0.0 mm 2.5 km/h NW 319 0 min 0.0 UV-I 40.0 W/m 14.1 C 6.4 km/h
19.10.2019 17:20 14.3 C 92 % 1010.7 hPa 0.0 mm 3.9 km/h NW 309 0 min 0.0 UV-I 53.0 W/m 14.3 C 8.0 km/h
19.10.2019 17:10 14.4 C 93 % 1010.6 hPa 0.0 mm 1.9 km/h NW 309 10 min 0.0 UV-I 151.0 W/m 14.4 C 8.0 km/h
19.10.2019 17:00 14.4 C 93 % 1010.6 hPa 0.0 mm 2.1 km/h NW 309 0 min 0.0 UV-I 76.0 W/m 14.4 C 6.4 km/h
19.10.2019 16:50 14.5 C 92 % 1010.5 hPa 0.0 mm 2.9 km/h NW 310 0 min 0.0 UV-I 128.0 W/m 14.5 C 6.4 km/h
19.10.2019 16:40 14.4 C 92 % 1010.5 hPa 0.0 mm 2.5 km/h NW 324 0 min 0.0 UV-I 144.0 W/m 14.4 C 6.4 km/h
19.10.2019 16:30 14.6 C 93 % 1010.6 hPa 0.0 mm 3.5 km/h N-NW 327 0 min 0.5 UV-I 144.0 W/m 14.6 C 8.0 km/h
19.10.2019 16:20 14.6 C 93 % 1010.6 hPa 0.0 mm 1.7 km/h N-NW 340 0 min 0.5 UV-I 128.0 W/m 14.6 C 6.4 km/h
19.10.2019 16:10 14.5 C 92 % 1010.8 hPa 0.0 mm 2.0 km/h N-NW 335 0 min 0.6 UV-I 148.0 W/m 14.5 C 8.0 km/h
19.10.2019 16:00 14.6 C 92 % 1011.0 hPa 0.0 mm 1.4 km/h N 360 0 min 0.7 UV-I 160.0 W/m 14.6 C 4.8 km/h
19.10.2019 15:50 14.7 C 92 % 1011.0 hPa 0.0 mm 2.5 km/h N-NW 336 0 min 0.8 UV-I 155.0 W/m 14.7 C 8.0 km/h
19.10.2019 15:40 14.7 C 92 % 1010.8 hPa 0.0 mm 2.5 km/h N 355 10 min 1.0 UV-I 227.0 W/m 14.7 C 8.0 km/h
19.10.2019 15:30 14.4 C 92 % 1010.9 hPa 0.0 mm 5.3 km/h NO 35 10 min 1.1 UV-I 288.0 W/m 14.4 C 12.9 km/h
19.10.2019 15:20 14.3 C 92 % 1010.9 hPa 0.0 mm 5.1 km/h NO 55 10 min 1.1 UV-I 258.0 W/m 14.3 C 14.5 km/h
19.10.2019 15:10 14.2 C 91 % 1011.1 hPa 0.0 mm 3.5 km/h NO 54 0 min 1.0 UV-I 225.0 W/m 14.2 C 8.0 km/h
19.10.2019 15:00 14.2 C 92 % 1011.3 hPa 0.0 mm 4.7 km/h NO 52 0 min 1.1 UV-I 213.0 W/m 14.2 C 9.7 km/h
19.10.2019 14:50 14.5 C 91 % 1011.4 hPa 0.0 mm 1.2 km/h N 9 0 min 1.0 UV-I 171.0 W/m 14.5 C 6.4 km/h
19.10.2019 14:40 14.5 C 91 % 1011.5 hPa 0.0 mm 2.1 km/h NO 39 0 min 1.0 UV-I 183.0 W/m 14.5 C 8.0 km/h
19.10.2019 14:30 14.6 C 95 % 1011.6 hPa 0.0 mm 1.4 km/h N 355 10 min 1.7 UV-I 443.0 W/m 14.6 C 8.0 km/h
19.10.2019 14:20 14.0 C 95 % 1011.9 hPa 0.0 mm 3.0 km/h N-NO 28 0 min 1.7 UV-I 274.0 W/m 14.0 C 8.0 km/h
19.10.2019 14:10 13.4 C 94 % 1012.0 hPa 0.0 mm 3.3 km/h N-NO 28 0 min 0.8 UV-I 151.0 W/m 13.4 C 8.0 km/h
19.10.2019 14:00 13.6 C 94 % 1012.1 hPa 0.0 mm 3.8 km/h N-NO 14 0 min 0.9 UV-I 155.0 W/m 13.6 C 9.7 km/h
19.10.2019 13:50 13.8 C 96 % 1012.0 hPa 0.0 mm 2.9 km/h N-NO 14 0 min 1.3 UV-I 251.0 W/m 13.8 C 6.4 km/h
19.10.2019 13:40 13.4 C 96 % 1012.3 hPa 0.0 mm 6.0 km/h NO 46 0 min 1.2 UV-I 220.0 W/m 13.4 C 14.5 km/h
19.10.2019 13:30 13.3 C 96 % 1012.6 hPa 0.0 mm 2.8 km/h NO 56 0 min 1.0 UV-I 179.0 W/m 13.3 C 8.0 km/h
19.10.2019 13:20 13.3 C 96 % 1012.6 hPa 0.0 mm 4.1 km/h NO 38 0 min 0.9 UV-I 149.0 W/m 13.3 C 9.7 km/h
19.10.2019 13:10 13.2 C 96 % 1012.4 hPa 0.0 mm 6.4 km/h O-NO 74 0 min 0.7 UV-I 113.0 W/m 13.2 C 12.9 km/h
19.10.2019 13:00 13.2 C 96 % 1012.8 hPa 0.0 mm 1.6 km/h O-NO 78 0 min 0.7 UV-I 109.0 W/m 13.2 C 8.0 km/h
19.10.2019 12:50 13.2 C 96 % 1013.2 hPa 0.0 mm 0.0 km/h N-NO 30 0 min 0.7 UV-I 120.0 W/m 13.2 C 0.0 km/h
19.10.2019 12:40 13.1 C 96 % 1013.0 hPa 0.0 mm 1.0 km/h N 360 0 min 0.6 UV-I 100.0 W/m 13.1 C 4.8 km/h
19.10.2019 12:30 13.0 C 96 % 1013.1 hPa 0.0 mm 1.1 km/h N 355 0 min 0.6 UV-I 105.0 W/m 13.0 C 3.2 km/h
19.10.2019 12:20 12.8 C 97 % 1013.2 hPa 0.2 mm 2.5 km/h NW 308 0 min 0.6 UV-I 107.0 W/m 12.8 C 6.4 km/h
19.10.2019 12:10 12.4 C 97 % 1012.9 hPa 0.0 mm 10.1 km/h O-NO 78 0 min 0.6 UV-I 97.0 W/m 12.4 C 17.7 km/h
19.10.2019 12:00 12.5 C 97 % 1012.8 hPa 0.0 mm 7.4 km/h O 86 0 min 0.0 UV-I 72.0 W/m 12.5 C 14.5 km/h
19.10.2019 11:50 12.4 C 97 % 1013.2 hPa 0.0 mm 3.6 km/h O 98 0 min 0.5 UV-I 81.0 W/m 12.4 C 9.7 km/h
19.10.2019 11:40 12.3 C 97 % 1013.3 hPa 0.0 mm 3.5 km/h O-SO 110 0 min 0.5 UV-I 91.0 W/m 12.3 C 9.7 km/h
19.10.2019 11:30 12.1 C 97 % 1013.3 hPa 0.0 mm 8.1 km/h O 96 0 min 0.0 UV-I 69.0 W/m 12.1 C 19.3 km/h
19.10.2019 11:20 12.2 C 97 % 1012.9 hPa 0.0 mm 10.5 km/h O 93 0 min 0.0 UV-I 63.0 W/m 12.2 C 17.7 km/h
19.10.2019 11:10 12.2 C 97 % 1013.3 hPa 0.2 mm 9.4 km/h O-NO 72 0 min 0.5 UV-I 123.0 W/m 12.2 C 17.7 km/h
19.10.2019 11:00 12.0 C 97 % 1013.5 hPa 0.0 mm 7.0 km/h O-NO 74 0 min 0.5 UV-I 121.0 W/m 12.0 C 16.1 km/h
19.10.2019 10:50 11.8 C 97 % 1014.0 hPa 0.2 mm 2.1 km/h O 85 0 min 0.0 UV-I 54.0 W/m 11.8 C 8.0 km/h
19.10.2019 10:40 11.8 C 97 % 1014.2 hPa 0.2 mm 1.3 km/h O 96 0 min 0.0 UV-I 32.0 W/m 11.8 C 4.8 km/h
19.10.2019 10:30 11.8 C 97 % 1014.2 hPa 0.2 mm 0.2 km/h O-SO 116 0 min 0.0 UV-I 28.0 W/m 11.8 C 1.6 km/h
19.10.2019 10:20 11.8 C 97 % 1014.4 hPa 0.2 mm 1.0 km/h O-SO 116 0 min 0.0 UV-I 30.0 W/m 11.8 C 3.2 km/h
19.10.2019 10:10 11.6 C 97 % 1014.3 hPa 0.2 mm 2.3 km/h O-SO 116 0 min 0.0 UV-I 40.0 W/m 11.6 C 4.8 km/h
19.10.2019 10:00 11.5 C 97 % 1013.9 hPa 0.2 mm 4.1 km/h O 92 0 min 0.0 UV-I 23.0 W/m 11.5 C 8.0 km/h
_ Min-Zeit 02:10 14:40 18:40 - 12:50 - - - - - 02:10 12:50
Minimum _ 9.8 C 91 % 1009.5 hPa - 0.0 km/h - - - - - 9.8 C 0.0 km/h
_ Max-Zeit 15:40 01:50 10:20 10:00 11:20 - - 14:30 14:20 14:30 15:40 11:30
Maximum _ 14.7 C 98 % 1014.4 hPa 0.2 mm 10.5 km/h
O
- - 10 min 1.7 UV-I 443.0 W/m 14.7 C 19.3 km/h
O-NO
Durchschnitt _ 12.1 C 96 % 1011.1 hPa #1.6 mm 1.9 km/h O - #0 min. 0.0 UV-I 24.7 W/m 12.1 C 4.8 km/h